Kang Airport


Codes: FBKG/
Name: Kang Airport
City:
Country: Botswana
Elevation: 3520 ft.

Photos at Kang Airport


   Photos courtesy of SpottingLog. You can add your own sightings and photos by signing up for a free trial today.



No photos found.

Weather at Kang Airport


Time (UTC)DescriptionTempratureWindCloud coverageVisibilityPressureHumidity
13-Jun-2024 03:00Few Clouds11°C4 mph, NE13%10000m1026hPa38%
13-Jun-2024 06:00Few Clouds11°C7 mph, NE17%10000m1027hPa39%
13-Jun-2024 09:00Clear Sky20°C7 mph, NE0%10000m1026hPa22%
13-Jun-2024 12:00Clear Sky23°C9 mph, NE0%10000m1022hPa18%
13-Jun-2024 15:00Clear Sky22°C7 mph, E0%10000m1021hPa19%
13-Jun-2024 18:00Clear Sky15°C7 mph, E0%10000m1024hPa29%
13-Jun-2024 21:00Clear Sky13°C2 mph, NE0%10000m1025hPa32%
14-Jun-2024 00:00Clear Sky12°C7 mph, E0%10000m1025hPa34%
14-Jun-2024 03:00Clear Sky10°C4 mph, E0%10000m1025hPa38%
14-Jun-2024 06:00Clear Sky11°C7 mph, NE0%10000m1027hPa35%
14-Jun-2024 09:00Clear Sky20°C9 mph, NE0%10000m1026hPa20%
14-Jun-2024 12:00Clear Sky23°C9 mph, NE0%10000m1022hPa14%
14-Jun-2024 15:00Clear Sky21°C7 mph, NE0%10000m1021hPa18%
14-Jun-2024 18:00Clear Sky15°C4 mph, NE0%10000m1024hPa26%
14-Jun-2024 21:00Clear Sky14°C4 mph, E0%10000m1024hPa29%
15-Jun-2024 00:00Clear Sky12°C7 mph, NE0%10000m1024hPa32%
15-Jun-2024 03:00Clear Sky10°C7 mph, NE0%10000m1024hPa40%
15-Jun-2024 06:00Clear Sky11°C7 mph, NE0%10000m1025hPa40%
15-Jun-2024 09:00Clear Sky20°C9 mph, NE0%10000m1023hPa24%
15-Jun-2024 12:00Clear Sky23°C9 mph, NE0%10000m1019hPa17%
15-Jun-2024 15:00Clear Sky22°C7 mph, NE0%10000m1019hPa19%
15-Jun-2024 18:00Clear Sky15°C7 mph, NE2%10000m1022hPa27%
15-Jun-2024 21:00Clear Sky14°C4 mph, E5%10000m1022hPa29%
16-Jun-2024 00:00Clear Sky13°C7 mph, NE5%10000m1021hPa31%
16-Jun-2024 03:00Clear Sky10°C7 mph, NE3%10000m1022hPa37%
16-Jun-2024 06:00Clear Sky11°C7 mph, NE1%10000m1023hPa40%
16-Jun-2024 09:00Clear Sky21°C11 mph, NE1%10000m1021hPa24%
16-Jun-2024 12:00Clear Sky23°C11 mph, NE0%10000m1017hPa19%
16-Jun-2024 15:00Clear Sky22°C7 mph, NE1%10000m1017hPa19%
16-Jun-2024 18:00Clear Sky15°C7 mph, NE2%10000m1020hPa25%
16-Jun-2024 21:00Clear Sky14°C7 mph, NE5%10000m1020hPa27%
17-Jun-2024 00:00Clear Sky11°C7 mph, NE5%10000m1020hPa32%
17-Jun-2024 03:00Clear Sky10°C7 mph, N0%10000m1021hPa34%
17-Jun-2024 06:00Clear Sky10°C9 mph, NE0%10000m1023hPa37%
17-Jun-2024 09:00Clear Sky20°C13 mph, N2%10000m1020hPa22%
17-Jun-2024 12:00Clear Sky24°C11 mph, N2%10000m1016hPa15%
17-Jun-2024 15:00Clear Sky23°C7 mph, N0%10000m1015hPa16%
17-Jun-2024 18:00Clear Sky16°C7 mph, N0%10000m1018hPa23%
17-Jun-2024 21:00Clear Sky15°C9 mph, N4%10000m1019hPa26%
18-Jun-2024 00:00Clear Sky13°C9 mph, N4%10000m1018hPa29%